Ashland City, Tennessee
Current Conditions -  °F | °C
As of 4:53 PM on Saturday 25 Oct 2014 (Local Time) from KBNA Reporting Station
Scattered Clouds Scattered Clouds  
Wind Chill: 78°   Ceiling: Unl
Heat Index: 80°   Visibility: 10mi
Dew Point: 62°   Wind: 7mph
Humidity: 58%   Direction: 280°W
Pressure: 30"   Gusts: NA
Location:  36.27°N, 87.06°W
Report Text: KBNA 252153Z 28006KT 10SM SCT055 26/17 A3000 RMK AO2 SLP155 T02560167
Loading
Personal Weather Stations






























Interactive Weather Map New forecast layout! Learn more

10-Day Weather Forecast

Advertisements
Track Severe Weather on mobile